Tiempo atmosférico en la estación meteorológica de Las Cabezas de San Juan, Sevilla (105 m.)



Fecha
DESCASC
Temp. máxima en grados centígrados (hora)
DESCASC
Temp. mínima en grados centígrados (hora)
DESCASC
Temp. media en grados centígrados
DESCASC
Racha de viento máxima en m/sg (hora)
DESCASC
Velocidad máxima media en intervalos de 10 minutos(hora)
DESCASC
Precipitaciones diarias en mm
DESCASC
Precipitaciones de 00:00 a 06:00 en mm
DESCASC
Precipitaciones de 06:00 a 12:00 en mm
DESCASC
Precipitaciones de 12:00 a 18:00 en mm
DESCASC
Precipitaciones de 18:00 a 24:00 en mm
DESCASC
07-08-2020 36.2 (14:50) 20.1 (07:50) 28.2 8.06 (18:10) 5 (18:20) 0 0 0 0 0
06-08-2020 40.5 (17:20) 22.2 (04:00) 31.4 8.33 (19:30) 5 (22:30) 0 0 0 0 0
05-08-2020 38.4 (17:50) 21.5 (08:00) 30 7.5 (15:50) 4.72 (19:20) 0 0 0 0 0
04-08-2020 33.8 (18:00) 21.8 (07:50) 27.8 9.17 (07:50) 5.28 (05:20) 0 0 0 0 0
03-08-2020 34.9 (17:00) 20 (07:50) 27.5 8.33 (22:30) 5.28 (23:00) 0 0 0 0 0
02-08-2020 38.2 (16:10) 22.7 (07:10) 30.5 9.17 (18:20) 5.28 (18:30) 0 0 0 0 0
01-08-2020 41.3 (18:10) 22.5 (00:00) 31.9 7.78 (20:00) 5 (19:40) 0 0 0 0 0
31-07-2020 38.7 (17:30) 21.1 (05:20) 29.9 7.5 (18:50) 5 (19:00) 0 0 0 0 0
30-07-2020 36.6 (15:30) 22.7 (00:00) 29.6 10.28 (15:50) 6.94 (15:50) 0 0 0 0 0
29-07-2020 35.9 (17:00) 21.5 (00:00) 28.7 7.5 (17:40) 5 (08:40) 0 0 0 0 0
28-07-2020 36.7 (16:10) 20.1 (07:10) 28.4 8.89 (17:00) 5.28 (19:00) 0 0 0 0 0
27-07-2020 35.9 (18:20) 22.6 (00:00) 29.3 8.33 (15:00) 5.83 (02:30) 0 0 0 0 0
26-07-2020 40.9 (16:10) 23.1 (00:00) 32 9.17 (16:20) 5 (23:59) 0 0 0 0 0
25-07-2020 38 (16:10) 20.7 (07:40) 29.4 -- (--) -- (--) 0 0 0 0 0
24-07-2020 38.2 (15:00) 22.7 (00:00) 30.5 9.17 (15:50) 6.11 (16:00) 0 0 0 0 0
23-07-2020 -- (--) -- (--) -- -- (--) -- (--) -- 0 0 0 --
22-07-2020 33.7 (18:20) 21.5 (04:20) 27.6 8.33 (16:40) 3.89 (15:50) 0 0 0 0 0
21-07-2020 36.1 (15:10) 23.3 (00:00) 29.7 11.39 (16:40) 7.22 (16:40) 0 0 0 0 0
20-07-2020 41.7 (17:20) 22.4 (06:50) 32.1 9.17 (21:30) 6.11 (22:40) 0 0 0 0 0
19-07-2020 36.9 (16:30) 20.8 (00:00) 28.9 8.61 (17:50) 5.56 (17:50) 0 0 0 0 0
18-07-2020 35.7 (15:30) 21.5 (00:00) 28.6 8.33 (19:00) 5 (19:50) 0 0 0 0 0
17-07-2020 39.6 (18:00) 22 (00:00) 30.8 8.33 (00:20) 5.56 (00:30) 0 0 0 0 0
16-07-2020 39.3 (16:50) 20.1 (00:00) 29.7 8.61 (00:10) 6.11 (00:30) 0 0 0 0 0
15-07-2020 38.4 (16:10) 21.7 (06:30) 30.1 8.89 (22:30) 5.83 (22:30) 0 0 0 0 0
14-07-2020 37 (16:30) 21.5 (00:00) 29.3 9.17 (17:50) 5.28 (17:40) 0 0 0 0 0
13-07-2020 37.6 (17:50) 21.5 (07:30) 29.5 7.78 (18:50) 4.17 (18:20) 0 0 0 0 0

Gráficas

Temp. máximas Temp. mínimas Temp. medias Precipitaciones Rachas de viento máximas Velocidades máximas media en intervalos de 10 minutos

Datos horarios

Fecha y hora oficial Temperatura (ºC) Velocidad del viento (km/h) Dirección del viento Racha (km/h) Dirección de racha Precipitación (mm) Presión (hPa) Tendencia (hPa) Humedad (%)
2020-08-11 23:00:00 22.3 14 Sur 25 Sur 0 -- -- 75
2020-08-11 22:00:00 24 8 Sur 18 Oeste 0 -- -- 64
2020-08-11 21:00:00 27 6 Sudoeste 22 Oeste 0 -- -- 49
2020-08-11 20:00:00 29.9 9 Sudoeste 31 Sudoeste 0 -- -- 48
2020-08-11 19:00:00 30.6 10 Sudoeste 33 Sudoeste 0 -- -- 50
2020-08-11 18:00:00 31.7 13 Sudoeste 32 Sudoeste 0 -- -- 49
2020-08-11 17:00:00 32.1 12 Sudoeste 29 Sudoeste 0 -- -- 51
2020-08-11 16:00:00 31.9 14 Sudoeste 33 Sur 0 -- -- 53
2020-08-11 15:00:00 31.1 11 Sudoeste 27 Oeste 0 -- -- 56
2020-08-11 14:00:00 29.8 9 Sudoeste 20 Sudoeste 0 -- -- 60
2020-08-11 13:00:00 30.3 8 Sudoeste 23 Sudoeste 0 -- -- 58
2020-08-11 12:00:00 28.5 6 Oeste 17 Oeste 0 -- -- 65
2020-08-11 11:00:00 26.3 4 Oeste 11 Oeste 0 -- -- 71
2020-08-11 10:00:00 24.6 3 Noroeste 6 Noroeste 0 -- -- 78
2020-08-11 09:00:00 23.2 0 Calma 5 Este 0 -- -- 82
2020-08-11 08:00:00 22.4 0 Calma 7 Oeste 0 -- -- 80
2020-08-11 07:00:00 23.6 2 Sudoeste 6 Este 0 -- -- 81
2020-08-11 06:00:00 23.5 0 Calma 9 Sudeste 0 -- -- 81
2020-08-11 05:00:00 22.9 5 Sudeste 12 Sudeste 0 -- -- 80
2020-08-11 04:00:00 22.4 0 Calma -- -- 0 -- -- 78
2020-08-11 03:00:00 23 2 Sudeste 6 Nordeste 0 -- -- 78
2020-08-11 02:00:00 23.8 0 Calma 5 Oeste 0 -- -- 75
2020-08-11 01:00:00 24.5 2 Sudoeste 9 Oeste 0 -- -- 75
2020-08-11 00:00:00 25.3 4 Sudoeste 20 Sudoeste 0 -- -- 71
2020-08-10 23:00:00 26.8 9 Sudoeste 26 Sur 0 -- -- 62
2020-08-10 22:00:00 28.1 9 Sudoeste 17 Sur 0 -- -- 60
2020-08-10 21:00:00 29.6 5 Sudoeste 18 Noroeste 0 -- -- 54
2020-08-10 20:00:00 31.2 13 Oeste 26 Noroeste 0 -- -- 53
2020-08-10 19:00:00 31.9 18 Noroeste 28 Noroeste 0 -- -- 54
2020-08-10 18:00:00 33.7 17 Noroeste 28 Noroeste 0 -- -- 50
2020-08-10 17:00:00 35.5 7 Sudoeste 19 Sudoeste 0 -- -- 41
2020-08-10 16:00:00 34.5 6 Sudoeste 19 Sudoeste 0 -- -- 42
2020-08-10 15:00:00 33.4 6 Sudoeste 18 Sudoeste 0 -- -- 44
2020-08-10 14:00:00 30.5 4 Oeste 14 Oeste 0 -- -- 53
2020-08-10 13:00:00 29 3 Nordeste 15 Sur 0 -- -- 57
2020-08-10 12:00:00 26.7 5 Sur 14 Sudoeste 0 -- -- 75
2020-08-10 11:00:00 24.1 2 Este 8 Norte 0 -- -- 86
2020-08-10 10:00:00 23.1 2 Norte 8 Este 0.2 -- -- 90
2020-08-10 09:00:00 22.4 3 Norte 8 Nordeste 1 -- -- 91
2020-08-10 08:00:00 22.8 3 Norte 5 Norte 0 -- -- 78
2020-08-10 07:00:00 23.7 3 Sudoeste 23 Sur 0 -- -- 77
2020-08-10 06:00:00 24 12 Sur 21 Sur 0 -- -- 75
2020-08-10 05:00:00 23.9 9 Sur 15 Sur 0 -- -- 74
2020-08-10 04:00:00 23.8 3 Sudoeste 10 Sudeste 0 -- -- 78
2020-08-10 03:00:00 23.8 5 Sur 12 Sur 0 -- -- 81
2020-08-10 02:00:00 24.3 2 Sur 10 Sudeste 0 -- -- 77
2020-08-10 01:00:00 24.5 2 Sur 9 Sur 0 -- -- 77
2020-08-10 00:00:00 25.1 7 Sur 11 Sudoeste 0 -- -- 77
2020-08-09 23:00:00 25.8 3 Oeste 11 Noroeste 0 -- -- 74
2020-08-09 22:00:00 27.2 3 Oeste 14 Noroeste 0 -- -- 68
2020-08-09 21:00:00 28.8 5 Oeste 25 Oeste 0 -- -- 62
2020-08-09 20:00:00 30.8 11 Oeste 28 Noroeste 0 -- -- 57
2020-08-09 19:00:00 33 16 Noroeste 27 Noroeste 0 -- -- 52
2020-08-09 18:00:00 34.4 16 Noroeste 27 Noroeste 0 -- -- 48
2020-08-09 17:00:00 35.7 15 Noroeste 32 Noroeste 0 -- -- 43
2020-08-09 16:00:00 37.1 9 Noroeste 23 Noroeste 0 -- -- 33
2020-08-09 15:00:00 36.6 8 Norte 19 Sur 0 -- -- 35
2020-08-09 14:00:00 34.2 6 Norte 15 Noroeste 0 -- -- 36
2020-08-09 13:00:00 32.2 5 Nordeste 14 Nordeste 0 -- -- 39
2020-08-09 12:00:00 30.3 3 Sur 10 Nordeste 0 -- -- 42
2020-08-09 11:00:00 27.3 4 Norte 13 Noroeste 0 -- -- 54
2020-08-09 10:00:00 25.2 4 Norte 9 Noroeste 0 -- -- 63
2020-08-09 09:00:00 22.8 0 Calma 6 Este 0 -- -- 66
2020-08-09 08:00:00 21.1 6 Este 8 Este 0 -- -- 69
2020-08-09 07:00:00 21.8 2 Este 9 Sur 0 -- -- 68
2020-08-09 06:00:00 22.9 3 Sur 15 Sur 0 -- -- 63
2020-08-09 05:00:00 23.9 10 Sur 14 Sur 0 -- -- 60
2020-08-09 04:00:00 23.7 7 Sur 11 Sudeste 0 -- -- 61
2020-08-09 03:00:00 23.7 5 Sudoeste 7 Sur 0 -- -- 62
2020-08-09 02:00:00 24 0 Calma 5 Sur 0 -- -- 63
2020-08-09 01:00:00 24.8 3 Sur 9 Sudoeste 0 -- -- 61
2020-08-09 00:00:00 25.7 4 Sur 9 Sudoeste 0 -- -- 59
2020-08-08 23:00:00 26.5 3 Sudoeste 12 Sudoeste 0 -- -- 57
2020-08-08 22:00:00 27.8 5 Sudoeste 18 Oeste 0 -- -- 55
2020-08-08 21:00:00 30.9 5 Oeste 16 Oeste 0 -- -- 50
2020-08-08 20:00:00 33.2 9 Oeste 23 Noroeste 0 -- -- 44
2020-08-08 19:00:00 34.3 14 Noroeste 24 Noroeste 0 -- -- 43
2020-08-08 18:00:00 36 11 Oeste 26 Noroeste 0 -- -- 38
2020-08-08 17:00:00 36.9 14 Noroeste 23 Noroeste 0 -- -- 36
2020-08-08 16:00:00 36.9 7 Noroeste 24 Noroeste 0 -- -- 32
2020-08-08 15:00:00 35.8 9 Oeste 21 Noroeste 0 -- -- 35
2020-08-08 14:00:00 34.2 5 Noroeste 15 Noroeste 0 -- -- 38
2020-08-08 13:00:00 32.2 6 Noroeste 14 Noroeste 0 -- -- 44
2020-08-08 12:00:00 29.7 5 Noroeste 19 Noroeste 0 -- -- 50
2020-08-08 11:00:00 27.6 9 Oeste 18 Oeste 0 -- -- 59
2020-08-08 10:00:00 25.6 6 Noroeste 19 Oeste 0 -- -- 67
2020-08-08 09:00:00 24 5 Sudoeste 21 Nordeste 0 -- -- 71
2020-08-08 08:00:00 23.6 6 Este 17 Nordeste 0 -- -- 74
2020-08-08 07:00:00 23.5 3 Este 7 Sudoeste 0 -- -- 78
2020-08-08 06:00:00 23.5 3 Sudeste 10 Nordeste 0 -- -- 80
2020-08-08 05:00:00 23.2 2 Oeste 11 Sudoeste 0 -- -- 81
2020-08-08 04:00:00 23.1 5 Sudoeste 10 Sur 0 -- -- 78
2020-08-08 03:00:00 23 3 Norte 10 Oeste 0 -- -- 79
2020-08-08 02:00:00 23.2 2 Sur 11 Este 0 -- -- 79
2020-08-08 01:00:00 23.5 3 Sur 8 Sur 0 -- -- 79
2020-08-08 00:00:00 23.9 3 Sudoeste 14 Sudoeste 0 -- -- 78
2020-08-07 23:00:00 25.1 4 Sudoeste 14 Noroeste 0 -- -- 74
2020-08-07 22:00:00 26.5 7 Oeste 15 Oeste 0 -- -- 69
2020-08-07 21:00:00 28.6 6 Oeste 19 Oeste 0 -- -- 62
2020-08-07 20:00:00 30.1 10 Noroeste 24 Noroeste 0 -- -- 57
2020-08-07 19:00:00 31.5 12 Noroeste 29 Noroeste 0 -- -- 54
2020-08-07 18:00:00 33.6 13 Oeste 27 Noroeste 0 -- -- 42
2020-08-07 17:00:00 33.7 13 Oeste 26 Noroeste 0 -- -- 43
2020-08-07 16:00:00 34.5 13 Oeste 26 Noroeste 0 -- -- 41
2020-08-07 15:00:00 35.9 8 Oeste 21 Sur 0 -- -- 28
2020-08-07 14:00:00 33.6 8 Noroeste 16 Norte 0 -- -- 37
2020-08-07 13:00:00 31.9 6 Norte 17 Noroeste 0 -- -- 42
2020-08-07 12:00:00 30 8 Noroeste 16 Noroeste 0 -- -- 48
2020-08-07 11:00:00 28.8 3 Este 8 Este 0 -- -- 49
2020-08-07 10:00:00 25.8 4 Norte 10 Nordeste 0 -- -- 59
2020-08-07 09:00:00 22.9 3 Nordeste 8 Este 0 -- -- 70
2020-08-07 08:00:00 20.1 4 Este 6 Este 0 -- -- 71
2020-08-07 07:00:00 20.6 4 Este 5 Este 0 -- -- 73
2020-08-07 06:00:00 21.5 0 Calma 5 Nordeste 0 -- -- 70
2020-08-07 05:00:00 22.5 3 Nordeste 6 Nordeste 0 -- -- 72
2020-08-07 04:00:00 23.3 4 Nordeste 6 Nordeste 0 -- -- 70
2020-08-07 03:00:00 23.9 3 Nordeste 8 Este 0 -- -- 70
2020-08-07 02:00:00 24.5 4 Nordeste 9 Norte 0 -- -- 72
2020-08-07 01:00:00 25.3 2 Nordeste 8 Sudeste 0 -- -- 50
2020-08-07 00:00:00 27.3 3 Noroeste 10 Noroeste 0 -- -- 34
2020-08-06 23:00:00 29.9 6 Sur 28 Sudeste 0 -- -- 26
2020-08-06 22:00:00 30.6 12 Sur 27 Sur 0 -- -- 28
2020-08-06 21:00:00 32.5 6 Sudoeste 25 Sur 0 -- -- 26
2020-08-06 20:00:00 35.3 15 Sur 30 Sudeste 0 -- -- 23
2020-08-06 19:00:00 38.5 17 Sur 25 Sudeste 0 -- -- 20
2020-08-06 18:00:00 39.6 8 Norte 27 Nordeste 0 -- -- 28
2020-08-06 17:00:00 40.2 9 Sur 28 Sur 0 -- -- 23
2020-08-06 16:00:00 39 14 Sur 26 Sur 0 -- -- 25
2020-08-06 15:00:00 38.4 12 Sudoeste 28 Sur 0 -- -- 27
2020-08-06 14:00:00 38 10 Sur 25 Sudeste 0 -- -- 27
2020-08-06 13:00:00 35.3 5 Nordeste 18 Noroeste 0 -- -- 32
2020-08-06 12:00:00 32.3 10 Norte 17 Norte 0 -- -- 41
2020-08-06 11:00:00 30.1 4 Noroeste 13 Noroeste 0 -- -- 47
2020-08-06 10:00:00 27.9 4 Norte 10 Norte 0 -- -- 53
2020-08-06 09:00:00 24.6 3 Nordeste 8 Este 0 -- -- 66
2020-08-06 08:00:00 22.6 0 Calma 8 Sudeste 0 -- -- 70
2020-08-06 07:00:00 22.8 5 Sudeste 9 Este 0 -- -- 70
2020-08-06 06:00:00 22.8 5 Este 9 Este 0 -- -- 75
2020-08-06 05:00:00 22.4 6 Este 8 Este 0 -- -- 77
2020-08-06 04:00:00 22.2 4 Este 7 Sudeste 0 -- -- 78
2020-08-06 03:00:00 23.3 0 Calma 5 Oeste 0 -- -- 76
2020-08-06 02:00:00 24.7 4 Sudoeste 8 Oeste 0 -- -- 74
2020-08-06 01:00:00 25.7 3 Sudoeste 10 Sudoeste 0 -- -- 72
2020-08-06 00:00:00 26.6 4 Oeste 12 Sudoeste 0 -- -- 67
2020-08-05 23:00:00 28.2 5 Sudoeste 10 Sudoeste 0 -- -- 56
2020-08-05 22:00:00 30.3 3 Oeste 15 Oeste 0 -- -- 54
2020-08-05 21:00:00 33.2 10 Noroeste 22 Oeste 0 -- -- 46
2020-08-05 20:00:00 35.4 14 Oeste 24 Oeste 0 -- -- 40
2020-08-05 19:00:00 38.2 10 Sudoeste 22 Sur 0 -- -- 31
2020-08-05 18:00:00 38 10 Noroeste 23 Norte 0 -- -- 31
2020-08-05 17:00:00 37.9 11 Norte 27 Oeste 0 -- -- 32
2020-08-05 16:00:00 37.9 13 Norte 27 Noroeste 0 -- -- 33
2020-08-05 15:00:00 36.6 9 Norte 19 Noroeste 0 -- -- 34
2020-08-05 14:00:00 34.6 8 Norte 17 Norte 0 -- -- 38
2020-08-05 13:00:00 33.4 6 Norte 22 Oeste 0 -- -- 42
2020-08-05 12:00:00 31.5 4 Nordeste 10 Nordeste 0 -- -- 47
2020-08-05 11:00:00 29.1 3 Norte 10 Norte 0 -- -- 55
2020-08-05 10:00:00 26.9 4 Nordeste 9 Este 0 -- -- 62
2020-08-05 09:00:00 23.7 2 Este 5 Este 0 -- -- 73
2020-08-05 08:00:00 21.5 4 Este 6 Este 0 -- -- 76
2020-08-05 07:00:00 22 3 Sudeste 9 Este 0 -- -- 76
2020-08-05 06:00:00 21.9 4 Sudeste 7 Este 0 -- -- 75
2020-08-05 05:00:00 22.6 5 Este 6 Este 0 -- -- 75
2020-08-05 04:00:00 23 0 Calma 4 Sudoeste 0 -- -- 73
2020-08-05 03:00:00 23.7 4 Sudoeste 5 Sur 0 -- -- 72
2020-08-05 02:00:00 24.1 3 Sudoeste 5 Sudoeste 0 -- -- 71
2020-08-05 01:00:00 24.9 3 Sudoeste 5 Sudoeste 0 -- -- 68
2020-08-05 00:00:00 25.8 3 Sudoeste 10 Oeste 0 -- -- 67
2020-08-04 23:00:00 26.6 5 Oeste 10 Oeste 0 -- -- 65
2020-08-04 22:00:00 28.2 3 Oeste 17 Noroeste 0 -- -- 61
2020-08-04 21:00:00 30.2 10 Oeste 20 Oeste 0 -- -- 55
2020-08-04 20:00:00 31.7 15 Noroeste 26 Oeste 0 -- -- 51
2020-08-04 19:00:00 33.3 15 Noroeste 29 Oeste 0 -- -- 48
2020-08-04 18:00:00 33.8 13 Noroeste 27 Norte 0 -- -- 48
2020-08-04 17:00:00 33.7 13 Norte 30 Noroeste 0 -- -- 51
2020-08-04 16:00:00 33.7 14 Noroeste 27 Noroeste 0 -- -- 50
2020-08-04 15:00:00 33.2 12 Noroeste 24 Noroeste 0 -- -- 50
2020-08-04 14:00:00 32.3 9 Sur 21 Sudoeste 0 -- -- 49
2020-08-04 13:00:00 30.6 8 Sudoeste 18 Sudoeste 0 -- -- 54
2020-08-04 12:00:00 28.9 8 Sudoeste 24 Sur 0 -- -- 61
2020-08-04 11:00:00 26.4 11 Sur 25 Sur 0 -- -- 71
2020-08-04 10:00:00 24.5 15 Sur 28 Sur 0 -- -- 78
2020-08-04 09:00:00 22.7 17 Sur 28 Sur 0 -- -- 86
2020-08-04 08:00:00 21.9 19 Sur 33 Sur 0 -- -- 88
2020-08-04 07:00:00 22.1 15 Sur 29 Sur 0 -- -- 86
2020-08-04 06:00:00 22.1 18 Sur 31 Sur 0 -- -- 85
2020-08-04 05:00:00 22 17 Sur 27 Sur 0 -- -- 85
2020-08-04 04:00:00 22.4 15 Sur 30 Sur 0 -- -- 79
2020-08-04 03:00:00 23 16 Sur 30 Sur 0 -- -- 71
2020-08-04 02:00:00 24 17 Sur 26 Sur 0 -- -- 62
2020-08-04 01:00:00 24.1 18 Sur 27 Sur 0 -- -- 59
2020-08-04 00:00:00 24.6 17 Sur 28 Sur 0 -- -- 58
2020-08-03 23:00:00 25.4 19 Sur 30 Sur 0 -- -- 53
2020-08-03 22:00:00 26.7 16 Sur 24 Sur 0 -- -- 49
2020-08-03 21:00:00 29.5 8 Sudoeste 22 Sur 0 -- -- 38
2020-08-03 20:00:00 31.3 10 Sudoeste 28 Sur 0 -- -- 34
2020-08-03 19:00:00 33.5 9 Oeste 24 Oeste 0 -- -- 27
2020-08-03 18:00:00 34.2 11 Oeste 24 Noroeste 0 -- -- 27
2020-08-03 17:00:00 34.9 9 Norte 28 Noroeste 0 -- -- 26
2020-08-03 16:00:00 34.3 6 Norte 23 Noroeste 0 -- -- 25
2020-08-03 15:00:00 32.7 12 Noroeste 23 Noroeste 0 -- -- 31
2020-08-03 14:00:00 31.1 5 Oeste 17 Noroeste 0 -- -- 34
2020-08-03 13:00:00 29.2 10 Noroeste 19 Noroeste 0 -- -- 36
2020-08-03 12:00:00 27.1 6 Oeste 15 Oeste 0 -- -- 42
2020-08-03 11:00:00 24.9 7 Oeste 18 Oeste 0 -- -- 49
2020-08-03 10:00:00 23.4 8 Sur 17 Sur 0 -- -- 65
2020-08-03 09:00:00 20.6 12 Sur 17 Sur 0 -- -- 83
2020-08-03 08:00:00 20.1 9 Sur 16 Sur 0 -- -- 91
2020-08-03 07:00:00 20.4 9 Sur 16 Sur 0 -- -- 88
2020-08-03 06:00:00 20.7 8 Sur 23 Sur 0 -- -- 85
2020-08-03 05:00:00 21.1 17 Sur 27 Sur 0 -- -- 83
2020-08-03 04:00:00 21.7 15 Sur 22 Sur 0 -- -- 77
2020-08-03 03:00:00 22.4 12 Sur 23 Sur 0 -- -- 71
2020-08-03 02:00:00 23 16 Sur 24 Sur 0 -- -- 69
2020-08-03 01:00:00 23.8 16 Sur 25 Sur 0 -- -- 65
2020-08-03 00:00:00 24.5 18 Sur 24 Sur 0 -- -- 58
2020-08-02 23:00:00 25.3 14 Sur 20 Sur 0 -- -- 49
2020-08-02 22:00:00 26.4 5 Sudoeste 22 Sudoeste 0 -- -- 54
2020-08-02 21:00:00 29.6 12 Sudoeste 22 Sudoeste 0 -- -- 41
2020-08-02 20:00:00 32 12 Oeste 28 Oeste 0 -- -- 35
2020-08-02 19:00:00 34.8 8 Oeste 33 Oeste 0 -- -- 25
2020-08-02 18:00:00 36.9 10 Oeste 25 Oeste 0 -- -- 22
2020-08-02 17:00:00 37.8 11 Oeste 28 Oeste 0 -- -- 23
2020-08-02 16:00:00 37.9 15 Noroeste 27 Noroeste 0 -- -- 18
2020-08-02 15:00:00 37.1 11 Oeste 20 Oeste 0 -- -- 21
2020-08-02 14:00:00 36 9 Noroeste 19 Noroeste 0 -- -- 23
2020-08-02 13:00:00 34.5 4 Oeste 12 Norte 0 -- -- 32
2020-08-02 12:00:00 32 3 Nordeste 12 Nordeste 0 -- -- 40
2020-08-02 11:00:00 28.8 6 Norte 14 Norte 0 -- -- 48
2020-08-02 10:00:00 26.6 6 Noroeste 11 Sur 0 -- -- 53
2020-08-02 09:00:00 24.5 4 Sur 10 Sudoeste 0 -- -- 60
2020-08-02 08:00:00 23.1 8 Sur 15 Sur 0 -- -- 61
2020-08-02 07:00:00 23.2 2 Sudoeste 6 Sudoeste 0 -- -- 59
2020-08-02 06:00:00 24.6 5 Sudoeste 9 Sur 0 -- -- 57
2020-08-02 05:00:00 25.2 8 Sur 12 Sur 0 -- -- 55
2020-08-02 04:00:00 25.5 8 Sur 11 Sur 0 -- -- 54
2020-08-02 03:00:00 26 7 Sur 13 Sur 0 -- -- 50
2020-08-02 02:00:00 26.8 9 Sur 19 Sur 0 -- -- 47
2020-08-02 01:00:00 27.5 11 Sur 18 Sudoeste 0 -- -- 46
2020-08-02 00:00:00 27.3 9 Sur 15 Sur 0 -- -- 48
2020-08-01 23:00:00 27.9 5 Sudoeste 14 Sudoeste 0 -- -- 44
2020-08-01 22:00:00 29.3 5 Oeste 20 Oeste 0 -- -- 41
2020-08-01 21:00:00 33.5 6 Oeste 24 Oeste 0 -- -- 32
2020-08-01 20:00:00 36.6 18 Oeste 28 Noroeste 0 -- -- 28
2020-08-01 19:00:00 40.2 13 Noroeste 20 Noroeste 0 -- -- 21
2020-08-01 18:00:00 41.2 5 Norte 20 Noroeste 0 -- -- 18
2020-08-01 17:00:00 41.1 10 Noroeste 25 Noroeste 0 -- -- 21
2020-08-01 16:00:00 40.4 10 Norte 20 Noroeste 0 -- -- 20
2020-08-01 15:00:00 38.6 8 Norte 21 Norte 0 -- -- 27
2020-08-01 14:00:00 36.3 9 Norte 22 Noroeste 0 -- -- 38
2020-08-01 13:00:00 34.3 9 Norte 18 Norte 0 -- -- 41
2020-08-01 12:00:00 31.3 7 Norte 14 Norte 0 -- -- 58
2020-08-01 11:00:00 28.1 8 Norte 14 Noroeste 0 -- -- 72
2020-08-01 10:00:00 26.2 6 Norte 12 Norte 0 -- -- 77
2020-08-01 09:00:00 23.8 2 Nordeste 5 Norte 0 -- -- 83
2020-08-01 08:00:00 22.5 0 Calma 8 Sur 0 -- -- 85
2020-08-01 07:00:00 23.2 6 Sur 8 Sur 0 -- -- 84
2020-08-01 06:00:00 23.6 4 Sur 9 Sudeste 0 -- -- 82
2020-08-01 05:00:00 24.2 2 Sur 13 Sudeste 0 -- -- 79
2020-08-01 04:00:00 25.5 4 Sur 13 Sudeste 0 -- -- 76
2020-08-01 03:00:00 25.7 7 Sur 19 Sudeste 0 -- -- 75
2020-08-01 02:00:00 25.8 6 Sur 15 Sur 0 -- -- 78
2020-08-01 01:00:00 26 6 Sudoeste 13 Sur 0 -- -- 80
2020-08-01 00:00:00 26.2 4 Oeste 9 Oeste 0 -- -- 79
2020-07-31 23:00:00 27.1 3 Oeste 11 Oeste 0 -- -- 75
2020-07-31 22:00:00 28.2 4 Oeste 15 Oeste 0 -- -- 71
2020-07-31 21:00:00 30.1 13 Noroeste 24 Noroeste 0 -- -- 64
2020-07-31 20:00:00 33.5 15 Noroeste 24 Noroeste 0 -- -- 54
2020-07-31 19:00:00 35.7 18 Noroeste 27 Noroeste 0 -- -- 49
2020-07-31 18:00:00 38.3 7 Noroeste 18 Sur 0 -- -- 36
2020-07-31 17:00:00 37.4 5 Noroeste 18 Noroeste 0 -- -- 39
2020-07-31 16:00:00 36.3 8 Noroeste 17 Noroeste 0 -- -- 46
2020-07-31 15:00:00 33.9 9 Noroeste 17 Noroeste 0 -- -- 50
2020-07-31 14:00:00 33.8 5 Nordeste 15 Noroeste 0 -- -- 49
2020-07-31 13:00:00 31.9 9 Noroeste 18 Noroeste 0 -- -- 55
2020-07-31 12:00:00 31 9 Nordeste 18 Norte 0 -- -- 57
2020-07-31 11:00:00 28.6 7 Norte 15 Norte 0 -- -- 65
2020-07-31 10:00:00 25.9 4 Nordeste 10 Norte 0 -- -- 79
2020-07-31 09:00:00 23.3 4 Nordeste 7 Nordeste 0 -- -- 92
2020-07-31 08:00:00 22.2 4 Este 5 Este 0 -- -- 93
2020-07-31 07:00:00 22.5 3 Este 8 Nordeste 0 -- -- 92
2020-07-31 06:00:00 21.8 0 Calma 6 Este 0 -- -- 91
2020-07-31 05:00:00 21.3 3 Este 5 Este 0 -- -- 90
2020-07-31 04:00:00 22 0 Calma 2 Este 0 -- -- 88
2020-07-31 03:00:00 23 3 Sudoeste 6 Sudoeste 0 -- -- 89
2020-07-31 02:00:00 23.3 4 Sudoeste 6 Sur 0 -- -- 87
2020-07-31 01:00:00 23.9 3 Sur 7 Oeste 0 -- -- 84
2020-07-31 00:00:00 24.6 4 Oeste 16 Oeste 0 -- -- 83
2020-07-30 23:00:00 25.3 7 Oeste 18 Noroeste 0 -- -- 80
2020-07-30 22:00:00 26.4 11 Noroeste 21 Oeste 0 -- -- 76
2020-07-30 21:00:00 29 15 Noroeste 29 Oeste 0 -- -- 66
2020-07-30 20:00:00 31.5 13 Noroeste 29 Noroeste 0 -- -- 58
2020-07-30 19:00:00 32.9 15 Noroeste 29 Noroeste 0 -- -- 55
2020-07-30 18:00:00 33.7 16 Noroeste 30 Oeste 0 -- -- 53
2020-07-30 17:00:00 34 17 Noroeste 35 Oeste 0 -- -- 52
2020-07-30 16:00:00 34.9 21 Noroeste 37 Noroeste 0 -- -- 50
2020-07-30 15:00:00 35.5 11 Noroeste 24 Noroeste 0 -- -- 43
2020-07-30 14:00:00 34.4 10 Noroeste 26 Sudoeste 0 -- -- 47
2020-07-30 13:00:00 33.4 6 Oeste 16 Noroeste 0 -- -- 45
2020-07-30 12:00:00 31.3 11 Noroeste 19 Noroeste 0 -- -- 52
2020-07-30 11:00:00 30.6 5 Este 10 Sur 0 -- -- 50
2020-07-30 10:00:00 27.9 4 Norte 8 Nordeste 0 -- -- 60
2020-07-30 09:00:00 24.7 3 Nordeste 7 Este 0 -- -- 69
2020-07-30 08:00:00 22.8 5 Este 8 Este 0 -- -- 72
2020-07-30 07:00:00 22.8 5 Este 7 Este 0 -- -- 74
2020-07-30 06:00:00 22.9 5 Este 8 Este 0 -- -- 76
2020-07-30 05:00:00 23.4 4 Este 8 Nordeste 0 -- -- 76
2020-07-30 04:00:00 23.8 4 Nordeste 11 Nordeste 0 -- -- 77
2020-07-30 03:00:00 24.2 4 Norte 9 Norte 0 -- -- 68
2020-07-30 02:00:00 25.2 4 Noroeste 9 Oeste 0 -- -- 62
2020-07-30 01:00:00 26.1 3 Sudoeste 11 Sur 0 -- -- 62
2020-07-30 00:00:00 26.4 5 Sudoeste 10 Sudoeste 0 -- -- 56
2020-07-29 23:00:00 27.2 4 Sudoeste 13 Sudoeste 0 -- -- 51
2020-07-29 22:00:00 28.8 4 Oeste 13 Oeste 0 -- -- 46
2020-07-29 21:00:00 30.9 9 Oeste 19 Noroeste 0 -- -- 49
2020-07-29 20:00:00 33.1 11 Noroeste 26 Noroeste 0 -- -- 43
2020-07-29 19:00:00 34.2 14 Noroeste 25 Noroeste 0 -- -- 43
2020-07-29 18:00:00 35.1 17 Noroeste 27 Noroeste 0 -- -- 42
2020-07-29 17:00:00 35.9 13 Noroeste 26 Noroeste 0 -- -- 42
2020-07-29 16:00:00 35.3 14 Noroeste 26 Norte 0 -- -- 41
2020-07-29 15:00:00 35.5 12 Noroeste 23 Norte 0 -- -- 42
2020-07-29 14:00:00 33.6 5 Oeste 15 Sur 0 -- -- 41
2020-07-29 13:00:00 31.1 6 Oeste 18 Oeste 0 -- -- 46
2020-07-29 12:00:00 28.4 7 Noroeste 13 Noroeste 0 -- -- 58
2020-07-29 11:00:00 27.2 8 Sur 17 Sur 0 -- -- 64
2020-07-29 10:00:00 24.6 9 Sur 25 Sur 0 -- -- 77
2020-07-29 09:00:00 21.9 17 Sur 25 Sur 0 -- -- 87
2020-07-29 08:00:00 21.5 14 Sur 22 Sur 0 -- -- 86
2020-07-29 07:00:00 22 14 Sur 22 Sur 0 -- -- 82
2020-07-29 06:00:00 22.6 11 Sur 22 Sur 0 -- -- 76
2020-07-29 05:00:00 23.8 9 Sur 16 Sudeste 0 -- -- 70
2020-07-29 04:00:00 24 7 Sudeste 13 Sudeste 0 -- -- 70
2020-07-29 03:00:00 24.2 6 Sur 11 Sur 0 -- -- 66
2020-07-29 02:00:00 24.8 6 Sur 10 Sudeste 0 -- -- 63
2020-07-29 01:00:00 24.6 5 Sur 8 Sur 0 -- -- 63
2020-07-29 00:00:00 25 4 Sudoeste 10 Oeste 0 -- -- 66
2020-07-28 23:00:00 26.2 3 Oeste 13 Sur 0 -- -- 63
2020-07-28 22:00:00 28 2 Sudoeste 15 Sudoeste 0 -- -- 59
2020-07-28 21:00:00 31.4 9 Oeste 26 Noroeste 0 -- -- 46
2020-07-28 20:00:00 34.1 18 Noroeste 28 Noroeste 0 -- -- 30
2020-07-28 19:00:00 35.2 19 Noroeste 28 Noroeste 0 -- -- 34
2020-07-28 18:00:00 36.1 15 Oeste 29 Noroeste 0 -- -- 36
2020-07-28 17:00:00 36.2 17 Oeste 32 Oeste 0 -- -- 38
2020-07-28 16:00:00 36.6 10 Noroeste 24 Noroeste 0 -- -- 35
2020-07-28 15:00:00 35.6 10 Noroeste 21 Noroeste 0 -- -- 38
2020-07-28 14:00:00 34.2 8 Noroeste 18 Oeste 0 -- -- 43
2020-07-28 13:00:00 32.3 6 Noroeste 16 Noroeste 0 -- -- 51
2020-07-28 12:00:00 29.6 7 Noroeste 14 Noroeste 0 -- -- 58
2020-07-28 11:00:00 27.6 5 Oeste 12 Oeste 0 -- -- 66
2020-07-28 10:00:00 25.3 5 Oeste 9 Oeste 0 -- -- 73
2020-07-28 09:00:00 22.8 0 Calma 4 Sur 0 -- -- 75
2020-07-28 08:00:00 20.3 0 Calma 4 Sur 0 -- -- 76
2020-07-28 07:00:00 20.3 3 Sur 4 Sur 0 -- -- 76
2020-07-28 06:00:00 21.3 2 Sudeste 5 Nordeste 0 -- -- 75
2020-07-28 05:00:00 22.6 4 Sudeste 9 Sudeste 0 -- -- 74
2020-07-28 04:00:00 22.3 4 Sur 5 Sur 0 -- -- 78
2020-07-28 03:00:00 23.1 3 Sur 5 Sudoeste 0 -- -- 77
2020-07-28 02:00:00 23.9 3 Sur 9 Sur 0 -- -- 75
2020-07-28 01:00:00 24.4 6 Sur 10 Sur 0 -- -- 72
2020-07-28 00:00:00 24.8 3 Oeste 7 Sudoeste 0 -- -- 72
2020-07-27 23:00:00 26 3 Sudoeste 14 Oeste 0 -- -- 66
2020-07-27 22:00:00 28 4 Oeste 12 Noroeste 0 -- -- 56
2020-07-27 21:00:00 30.4 9 Oeste 22 Oeste 0 -- -- 48
2020-07-27 20:00:00 32.8 10 Oeste 23 Noroeste 0 -- -- 45
2020-07-27 19:00:00 35.6 8 Oeste 23 Oeste 0 -- -- 35
2020-07-27 18:00:00 35.5 13 Oeste 24 Oeste 0 -- -- 37
2020-07-27 17:00:00 35.7 11 Oeste 26 Noroeste 0 -- -- 40
2020-07-27 16:00:00 35 14 Oeste 30 Oeste 0 -- -- 42
2020-07-27 15:00:00 34.7 15 Oeste 30 Oeste 0 -- -- 45
2020-07-27 14:00:00 34.2 17 Noroeste 30 Oeste 0 -- -- 46
2020-07-27 13:00:00 34.7 9 Sur 22 Sudoeste 0 -- -- 39
2020-07-27 12:00:00 31.2 6 Oeste 15 Sudoeste 0 -- -- 50
2020-07-27 09:00:00 -- -- -- -- -- -- -- -- --
2020-07-27 08:00:00 22.8 3 Sudeste 5 Sudeste 0 -- -- 66
2020-07-27 07:00:00 23 4 Este 8 Sudeste 0 -- -- 66
2020-07-27 06:00:00 23.7 2 Sudoeste 8 Este 0 -- -- 65
2020-07-27 05:00:00 24.4 5 Este 9 Este 0 -- -- 62
2020-07-27 04:00:00 25.2 4 Este 21 Sudeste 0 -- -- 57
2020-07-27 03:00:00 28.4 18 Sudeste 26 Sur 0 -- -- 44
2020-07-27 02:00:00 26.9 11 Sudeste 26 Sur 0 -- -- 55
2020-07-27 01:00:00 26.7 13 Sur 28 Sur 0 -- -- 57
2020-07-27 00:00:00 28 18 Sur 28 Sudoeste 0 -- -- 53
2020-07-26 23:00:00 29.4 5 Sudoeste 14 Sudoeste 0 -- -- 45
2020-07-26 22:00:00 29.9 6 Sudoeste 19 Oeste 0 -- -- 45
2020-07-26 21:00:00 31.9 11 Oeste 29 Oeste 0 -- -- 42
2020-07-26 20:00:00 37.8 12 Noroeste 18 Noroeste 0 -- -- 33
2020-07-26 19:00:00 39.2 8 Noroeste 22 Noroeste 0 -- -- 30
2020-07-26 18:00:00 38.8 13 Noroeste 33 Oeste 0 -- -- 32
2020-07-26 17:00:00 39.7 12 Noroeste 33 Sur 0 -- -- 27
2020-07-26 16:00:00 40.5 6 Nordeste 18 Noroeste 0 -- -- 25
2020-07-26 15:00:00 38.8 7 Noroeste 18 Noroeste 0 -- -- 27
2020-07-26 14:00:00 36.6 8 Noroeste 20 Noroeste 0 -- -- 32
2020-07-26 13:00:00 34.6 9 Norte 18 Noroeste 0 -- -- 36
2020-07-26 12:00:00 32.9 7 Noroeste 12 Noroeste 0 -- -- 40
2020-07-26 11:00:00 30.6 5 Noroeste 12 Oeste 0 -- -- 42
2020-07-26 10:00:00 28.5 5 Noroeste 9 Oeste 0 -- -- 46
2020-07-26 09:00:00 24.7 0 Calma 5 Noroeste 0 -- -- 58
2020-07-26 08:00:00 23.1 2 Sur 9 Este 0 -- -- 58
2020-07-26 07:00:00 24.4 2 Norte 14 Sudeste 0 -- -- 55
2020-07-26 06:00:00 26.5 12 Sudeste 16 Sudeste 0 -- -- 48
2020-07-26 05:00:00 25.3 5 Sur 8 Sur 0 -- -- 53
2020-07-26 04:00:00 24.7 4 Sur 5 Sudoeste 0 -- -- 57
2020-07-26 03:00:00 24.6 4 Sur 6 Sudoeste 0 -- -- 57
2020-07-26 02:00:00 25.9 4 Sur 6 Oeste 0 -- -- 54
2020-07-26 01:00:00 26.6 4 Sur 9 Sur 0 -- -- 55
2020-07-26 00:00:00 27.7 3 Sudoeste 7 Oeste 0 -- -- 54
2020-07-25 23:00:00 29.2 3 Sudoeste 8 Sudoeste 0 -- -- 50
2020-07-25 22:00:00 31 3 Oeste 14 Oeste 0 -- -- 44
2020-07-25 21:00:00 33.5 9 Oeste 25 Oeste 0 -- -- 40
2020-07-25 20:00:00 35.6 14 Oeste 27 Oeste 0 -- -- 37
2020-07-25 19:00:00 36.6 15 Oeste 28 Oeste 0 -- -- 36
2020-07-25 18:00:00 37.2 18 Noroeste 28 Noroeste 0 -- -- 36
2020-07-25 17:00:00 37.6 16 Noroeste 30 Noroeste 0 -- -- 35
2020-07-25 16:00:00 37.8 12 Noroeste 24 Norte 0 -- -- 33
2020-07-25 15:00:00 36.4 12 Noroeste 23 Noroeste 0 -- -- 36
2020-07-25 14:00:00 35.2 9 Norte 22 Noroeste 0 -- -- 39
2020-07-25 13:00:00 33.7 8 Norte 18 Norte 0 -- -- 41
2020-07-25 12:00:00 32 8 Noroeste 15 Noroeste 0 -- -- 41
2020-07-25 11:00:00 29.5 6 Noroeste 11 Noroeste 0 -- -- 44
2020-07-25 10:00:00 27.5 4 Noroeste 8 Noroeste 0 -- -- 45
2020-07-25 09:00:00 24 2 Norte 6 Este 0 -- -- 54
2020-07-25 08:00:00 20.9 7 Este 8 Este 0 -- -- 57
2020-07-25 07:00:00 21.6 2 Este 4 Sudeste 0 -- -- 54
2020-07-25 06:00:00 23.8 3 Sur 11 Sudeste 0 -- -- 51
2020-07-25 05:00:00 23.5 4 Sur 6 Sudeste 0 -- -- 51
2020-07-25 04:00:00 24.9 2 Sudeste 11 Sur 0 -- -- 49
2020-07-25 03:00:00 26.8 8 Sur 15 Sur 0 -- -- 45
2020-07-25 02:00:00 26.6 10 Sudeste 17 Sudeste 0 -- -- 50
2020-07-25 01:00:00 26.9 -- -- -- -- -- -- -- --
2020-07-25 00:00:00 27.7 4 Sur 8 Sudoeste 0 -- -- 41
2020-07-24 23:00:00 29.3 4 Sudoeste 13 Sudoeste 0 -- -- 35
2020-07-24 22:00:00 31.1 7 Sudoeste 12 Sur 0 -- -- 34
2020-07-24 21:00:00 34.7 5 Sudoeste 18 Oeste 0 -- -- 31
2020-07-24 20:00:00 36.4 9 Oeste 27 Oeste 0 -- -- 23
2020-07-24 19:00:00 36.4 18 Noroeste 28 Noroeste 0 -- -- 25
2020-07-24 18:00:00 37.3 18 Noroeste 28 Oeste 0 -- -- 26
2020-07-24 17:00:00 37.7 14 Noroeste 32 Oeste 0 -- -- 26
2020-07-24 16:00:00 36.9 22 Noroeste 33 Oeste 0 -- -- 35
2020-07-24 15:00:00 38.2 15 Noroeste 27 Norte 0 -- -- 33
2020-07-24 14:00:00 37.2 10 Noroeste 22 Noroeste 0 -- -- 32
2020-07-24 13:00:00 35.5 6 Oeste 16 Oeste 0 -- -- 35
2020-07-24 12:00:00 33.4 6 Sur 14 Sur 0 -- -- 38
2020-07-24 11:00:00 30.5 6 Sur 14 Sur 0 -- -- 46
2020-07-24 10:00:00 28 8 Sur 12 Sur 0 -- -- 52
2020-07-24 09:00:00 25.5 7 Sur 11 Sur 0 -- -- 55
2020-07-24 08:00:00 23.3 5 Sur 9 Sur 0 -- -- 60
2020-07-24 07:00:00 22.8 5 Sur 7 Sur 0 -- -- 62
2020-07-24 06:00:00 23.1 5 Sudoeste 6 Sur 0 -- -- 60
2020-07-24 05:00:00 24.9 4 Sudoeste 7 Sur 0 -- -- 54
2020-07-24 04:00:00 25.8 6 Sur 12 Sur 0 -- -- 52
2020-07-24 03:00:00 26.2 8 Sur 13 Sur 0 -- -- 52
2020-07-24 02:00:00 26.6 6 Sur 13 Sudeste 0 -- -- 53
2020-07-24 01:00:00 27.3 7 Sur 14 Sur 0 -- -- 48
2020-07-24 00:00:00 27.2 8 Sur 11 Sudoeste 0 -- -- 49
2020-07-23 23:00:00 27.8 7 Sudoeste 12 Sur 0 -- -- 51
2020-07-23 22:00:00 -- -- -- -- -- -- -- -- --
2020-07-23 21:00:00 32.2 12 Oeste 27 Oeste 0 -- -- 40
2020-07-23 20:00:00 34.6 17 Noroeste 31 Noroeste 0 -- -- 34
2020-07-23 19:00:00 36.2 18 Noroeste 28 Oeste 0 -- -- 32
2020-07-23 18:00:00 36.8 15 Noroeste 28 Noroeste 0 -- -- 32
2020-07-23 17:00:00 37.4 13 Noroeste 25 Noroeste 0 -- -- 33
2020-07-23 16:00:00 36.7 9 Noroeste 25 Noroeste 0 -- -- 33
2020-07-23 15:00:00 36.3 11 Noroeste 24 Oeste 0 -- -- 36
2020-07-23 14:00:00 35.3 10 Noroeste 17 Noroeste 0 -- -- 39
2020-07-23 13:00:00 32.9 9 Oeste 16 Oeste 0 -- -- 43
2020-07-23 12:00:00 30.2 7 Noroeste 15 Oeste 0 -- -- 50
2020-07-23 11:00:00 28.7 6 Oeste 13 Sur 0 -- -- 52
2020-07-23 10:00:00 26.4 8 Sur 16 Sur 0 -- -- 62
2020-07-23 09:00:00 23.8 6 Sur 10 Sur 0 -- -- 72
2020-07-23 08:00:00 22.6 6 Sur 17 Sur 0 -- -- 78
2020-07-23 07:00:00 22.4 10 Sur 17 Sur 0 -- -- 76
2020-07-23 06:00:00 23.1 6 Sur 10 Sudeste 0 -- -- 72
2020-07-23 05:00:00 22.7 6 Sudeste 9 Sudeste 0 -- -- 76
2020-07-23 04:00:00 23 4 Sur 9 Sur 0 -- -- 78
2020-07-23 03:00:00 23.8 4 Sur 15 Sudeste 0 -- -- 74
2020-07-23 02:00:00 23.9 8 Sudeste 13 Sudeste 0 -- -- 74
2020-07-23 01:00:00 24 5 Sur 14 Sur 0 -- -- 74
2020-07-23 00:00:00 24.1 4 Sudoeste 10 Oeste 0 -- -- 76
2020-07-22 23:00:00 24.8 5 Oeste 21 Oeste 0 -- -- 74
2020-07-22 22:00:00 26.5 14 Oeste 22 Oeste 0 -- -- 66
2020-07-22 21:00:00 29.8 13 Noroeste 21 Noroeste 0 -- -- 53
2020-07-22 20:00:00 31.9 12 Noroeste 24 Noroeste 0 -- -- 46
2020-07-22 19:00:00 33.4 8 Noroeste 20 Noroeste 0 -- -- 40
2020-07-22 18:00:00 33.3 9 Noroeste 22 Norte 0 -- -- 34
2020-07-22 17:00:00 32.5 13 Noroeste 30 Norte 0 -- -- 35
2020-07-22 16:00:00 31.6 10 Noroeste 27 Noroeste 0 -- -- 45
2020-07-22 15:00:00 30.9 12 Noroeste 27 Noroeste 0 -- -- 48
2020-07-22 14:00:00 30.5 8 Noroeste 22 Noroeste 0 -- -- 51
2020-07-22 13:00:00 28.8 9 Noroeste 20 Noroeste 0 -- -- 55
2020-07-22 12:00:00 27.2 4 Oeste 14 Oeste 0 -- -- 60
2020-07-22 11:00:00 27 5 Sur 13 Sudoeste 0 -- -- 59
2020-07-22 10:00:00 24.8 3 Sudeste 13 Sudeste 0 -- -- 72
2020-07-22 09:00:00 23.3 4 Sudeste 15 Sudeste 0 -- -- 80
2020-07-22 08:00:00 21.9 6 Sudeste 9 Sudeste 0 -- -- 85
2020-07-22 07:00:00 21.9 6 Sudeste 13 Sudeste 0 -- -- 86
2020-07-22 06:00:00 21.5 4 Este 10 Este 0 -- -- 85
2020-07-22 05:00:00 21.8 3 Este 4 Este 0 -- -- 83
2020-07-22 04:00:00 21.8 0 Calma 4 Este 0 -- -- 82
2020-07-22 03:00:00 22.8 2 Oeste 8 Oeste 0 -- -- 82
2020-07-22 02:00:00 22.9 0 Calma 4 Sudoeste 0 -- -- 81
2020-07-22 01:00:00 22.8 0 Calma 6 Oeste 0 -- -- 80
2020-07-22 00:00:00 23.3 3 Oeste 17 Oeste 0 -- -- 79
2020-07-21 23:00:00 23.8 6 Oeste 18 Oeste 0 -- -- 76
2020-07-21 22:00:00 25.2 5 Oeste 19 Oeste 0 -- -- 71
2020-07-21 21:00:00 27.3 6 Oeste 23 Oeste 0 -- -- 64
2020-07-21 20:00:00 28.3 10 Oeste 23 Oeste 0 -- -- 61
2020-07-21 19:00:00 29.1 13 Oeste 36 Oeste 0 -- -- 60
2020-07-21 18:00:00 31 19 Oeste 39 Noroeste 0 -- -- 53
2020-07-21 17:00:00 32.4 24 Noroeste 41 Noroeste 0 -- -- 49
2020-07-21 16:00:00 35.1 13 Norte 35 Norte 0 -- -- 45
2020-07-21 15:00:00 36 8 Sur 26 Sudoeste 0 -- -- 31
2020-07-21 14:00:00 35.2 11 Sur 25 Sur 0 -- -- 32
2020-07-21 13:00:00 33.9 9 Sur 24 Sur 0 -- -- 34
2020-07-21 12:00:00 31.2 8 Oeste 21 Sur 0 -- -- 42
2020-07-21 11:00:00 29.1 7 Oeste 17 Sur 0 -- -- 47
2020-07-21 10:00:00 27.5 7 Sur 15 Sudoeste 0 -- -- 50
2020-07-21 09:00:00 25.3 2 Oeste 11 Sudoeste 0 -- -- 52
2020-07-21 08:00:00 24.2 5 Este 12 Este 0 -- -- 52
2020-07-21 07:00:00 24.1 4 Nordeste 8 Este 0 -- -- 51
2020-07-21 06:00:00 24.6 3 Este 8 Este 0 -- -- 48
2020-07-21 05:00:00 25.3 2 Oeste 9 Noroeste 0 -- -- 47
2020-07-21 04:00:00 27.1 3 Noroeste 8 Norte 0 -- -- 47
2020-07-21 03:00:00 28.9 2 Nordeste 19 Norte 0 -- -- 41
2020-07-21 02:00:00 31 4 Sudeste 36 Sudeste 0 -- -- 30
2020-07-21 01:00:00 31.3 20 Sudeste 38 Sudeste 0 -- -- 29
2020-07-21 00:00:00 30.4 10 Sudeste 33 Sudeste 0 -- -- 34
2020-07-20 23:00:00 31.1 20 Sudeste 33 Sudeste 0 -- -- 34
2020-07-20 22:00:00 32.8 16 Sudeste 33 Sur 0 -- -- 30
2020-07-20 21:00:00 36 15 Sudeste 28 Sudeste 0 -- -- 27
2020-07-20 20:00:00 37.9 10 Sur 27 Sudoeste 0 -- -- 25
2020-07-20 19:00:00 40.2 15 Sur 28 Sur 0 -- -- 23
2020-07-20 18:00:00 41.7 12 Sudoeste 21 Sudoeste 0 -- -- 23
2020-07-20 17:00:00 41.6 10 Sur 25 Sudoeste 0 -- -- 24
2020-07-20 16:00:00 41 10 Sur 21 Noroeste 0 -- -- 24
2020-07-20 15:00:00 39 11 Noroeste 21 Oeste 0 -- -- 29
2020-07-20 14:00:00 37.6 11 Noroeste 20 Noroeste 0 -- -- 33
2020-07-20 13:00:00 35.9 7 Norte 15 Nordeste 0 -- -- 36
2020-07-20 12:00:00 33.2 8 Norte 16 Norte 0 -- -- 41
2020-07-20 11:00:00 31 6 Nordeste 14 Noroeste 0 -- -- 46
2020-07-20 10:00:00 28.2 4 Norte 9 Norte 0 -- -- 55
2020-07-20 09:00:00 25.2 3 Este 11 Sudeste 0 -- -- 63
2020-07-20 08:00:00 23.5 3 Noroeste 15 Sur 0 -- -- 68
2020-07-20 07:00:00 22.6 5 Sudeste 9 Sudeste 0 -- -- 70
2020-07-20 06:00:00 22.8 3 Oeste 8 Este 0 -- -- 67
2020-07-20 05:00:00 23 2 Sudeste 8 Sudeste 0 -- -- 65
2020-07-20 04:00:00 23 0 Calma 6 Oeste 0 -- -- 67
2020-07-20 03:00:00 24 2 Sudeste 10 Sur 0 -- -- 65
2020-07-20 02:00:00 24.7 5 Sudoeste 9 Sur 0 -- -- 64
2020-07-20 01:00:00 26.1 3 Sur 14 Sudeste 0 -- -- 61
2020-07-20 00:00:00 26.7 6 Sur 9 Sur 0 -- -- 60
2020-07-19 23:00:00 27.8 6 Sur 8 Sur 0 -- -- 57
2020-07-19 22:00:00 29.3 6 Oeste 13 Sudoeste 0 -- -- 53
2020-07-19 21:00:00 31.3 9 Noroeste 22 Noroeste 0 -- -- 51
2020-07-19 20:00:00 33 13 Noroeste 26 Noroeste 0 -- -- 47
2020-07-19 19:00:00 34.3 14 Noroeste 28 Noroeste 0 -- -- 44
2020-07-19 18:00:00 35.1 17 Noroeste 31 Oeste 0 -- -- 42
2020-07-19 17:00:00 36.8 15 Noroeste 25 Norte 0 -- -- 39
2020-07-19 16:00:00 36.3 10 Noroeste 22 Noroeste 0 -- -- 39
2020-07-19 15:00:00 35.2 7 Noroeste 19 Noroeste 0 -- -- 38
2020-07-19 14:00:00 33.2 5 Noroeste 16 Noroeste 0 -- -- 44
2020-07-19 13:00:00 30.6 7 Noroeste 15 Noroeste 0 -- -- 51
2020-07-19 12:00:00 28.6 6 Oeste 15 Noroeste 0 -- -- 58
2020-07-19 11:00:00 27 6 Noroeste 13 Norte 0 -- -- 63
2020-07-19 10:00:00 25.7 5 Noroeste 12 Noroeste 0 -- -- 67
2020-07-19 09:00:00 23.4 4 Este 8 Sudeste 0 -- -- 77
2020-07-19 08:00:00 21 2 Este 5 Este 0 -- -- 81
2020-07-19 07:00:00 21.3 2 Sur 6 Este 0 -- -- 80
2020-07-19 06:00:00 22.2 5 Noroeste 13 Sudeste 0 -- -- 76
2020-07-19 05:00:00 22.9 3 Sudeste 14 Sudeste 0 -- -- 77
2020-07-19 04:00:00 23.1 5 Sur 11 Sudeste 0 -- -- 78
2020-07-19 03:00:00 23.3 5 Sur 10 Sur 0 -- -- 77
2020-07-19 02:00:00 23.5 4 Sudoeste 5 Sudoeste 0 -- -- 76
2020-07-19 01:00:00 24 3 Oeste 10 Oeste 0 -- -- 75
2020-07-19 00:00:00 24.6 4 Oeste 8 Oeste 0 -- -- 71
2020-07-18 23:00:00 25.6 4 Sudoeste 9 Sudoeste 0 -- -- 68
2020-07-18 22:00:00 28 4 Sudoeste 19 Oeste 0 -- -- 58
2020-07-18 21:00:00 30.5 11 Noroeste 22 Oeste 0 -- -- 50
2020-07-18 20:00:00 31.4 14 Oeste 28 Oeste 0 -- -- 49
2020-07-18 19:00:00 32.9 16 Oeste 30 Noroeste 0 -- -- 46
2020-07-18 18:00:00 34.1 12 Oeste 28 Noroeste 0 -- -- 43
2020-07-18 17:00:00 34.8 15 Noroeste 27 Oeste 0 -- -- 40
2020-07-18 16:00:00 35.2 17 Noroeste 29 Noroeste 0 -- -- 38
2020-07-18 15:00:00 35.1 10 Noroeste 23 Noroeste 0 -- -- 35
2020-07-18 14:00:00 33.3 10 Noroeste 22 Noroeste 0 -- -- 42
2020-07-18 13:00:00 31.3 8 Noroeste 17 Noroeste 0 -- -- 47
2020-07-18 12:00:00 29.9 7 Norte 16 Noroeste 0 -- -- 53
2020-07-18 11:00:00 28.7 9 Norte 15 Norte 0 -- -- 56
2020-07-18 10:00:00 27.4 4 Este 10 Sudeste 0 -- -- 50
2020-07-18 09:00:00 24.3 4 Este 8 Este 0 -- -- 63
2020-07-18 08:00:00 21.6 3 Sudeste 7 Sudeste 0 -- -- 75
2020-07-18 07:00:00 21.7 5 Sudeste 8 Sudeste 0 -- -- 75
2020-07-18 06:00:00 21.8 3 Sudeste 7 Este 0 -- -- 75
2020-07-18 05:00:00 22.5 4 Este 7 Este 0 -- -- 74
2020-07-18 04:00:00 23.5 2 Sudeste 6 Sur 0 -- -- 73
2020-07-18 03:00:00 24 3 Sur 5 Sur 0 -- -- 72
2020-07-18 02:00:00 24.7 3 Sudoeste 7 Oeste 0 -- -- 70
2020-07-18 01:00:00 25.1 4 Oeste 15 Oeste 0 -- -- 69
2020-07-18 00:00:00 26.2 8 Noroeste 16 Oeste 0 -- -- 65
2020-07-17 23:00:00 29 5 Oeste 13 Oeste 0 -- -- 41
2020-07-17 22:00:00 31.9 3 Sudoeste 19 Sur 0 -- -- 36
2020-07-17 21:00:00 34.4 14 Sur 25 Sur 0 -- -- 32
2020-07-17 20:00:00 37.6 14 Sur 27 Sur 0 -- -- 27
2020-07-17 19:00:00 38.8 10 Sudoeste 22 Sudoeste 0 -- -- 25
2020-07-17 18:00:00 39.6 7 Sudoeste 21 Sur 0 -- -- 24
2020-07-17 17:00:00 39.2 10 Sur 22 Sur 0 -- -- 23
2020-07-17 16:00:00 38.8 9 Sur 24 Sur 0 -- -- 25
2020-07-17 15:00:00 37.8 11 Sudoeste 23 Sur 0 -- -- 25
2020-07-17 14:00:00 37.3 9 Sudeste 19 Sudeste 0 -- -- 25
2020-07-17 13:00:00 35.4 5 Nordeste 18 Sudoeste 0 -- -- 27
2020-07-17 12:00:00 33.7 5 Sudoeste 12 Sur 0 -- -- 27
2020-07-17 11:00:00 31.1 6 Sudoeste 14 Sur 0 -- -- 31
2020-07-17 10:00:00 29.2 3 Sur 7 Sudoeste 0 -- -- 33
2020-07-17 09:00:00 25.2 3 Este 8 Este 0 -- -- 47
2020-07-17 08:00:00 22.6 5 Sudeste 9 Este 0 -- -- 52
2020-07-17 07:00:00 22.2 6 Este 13 Este 0 -- -- 52
2020-07-17 06:00:00 22.8 8 Este 11 Sudeste 0 -- -- 51
2020-07-17 05:00:00 22.8 6 Este 12 Este 0 -- -- 50
2020-07-17 04:00:00 23.5 5 Este 8 Este 0 -- -- 43
2020-07-17 03:00:00 24.8 5 Este 11 Sur 0 -- -- 36
2020-07-17 02:00:00 27.4 6 Sur 30 Sudeste 0 -- -- 31
2020-07-17 01:00:00 28 15 Sudeste 30 Sudeste 0 -- -- 31
2020-07-17 00:00:00 27.9 17 Sur 29 Sudeste 0 -- -- 36
2020-07-16 23:00:00 28.3 17 Sur 30 Sudeste 0 -- -- 39
2020-07-16 22:00:00 30.6 17 Sudeste 27 Sur 0 -- -- 35
2020-07-16 21:00:00 34.1 12 Sur 26 Sur 0 -- -- 30
2020-07-16 20:00:00 36.7 14 Sur 24 Sur 0 -- -- 27
2020-07-16 19:00:00 38.2 12 Sur 21 Sur 0 -- -- 25
2020-07-16 18:00:00 38.7 12 Sur 24 Sur 0 -- -- 25
2020-07-16 17:00:00 38.9 14 Sur 28 Sudoeste 0 -- -- 25
2020-07-16 16:00:00 38.5 9 Sudoeste 18 Sudoeste 0 -- -- 25
2020-07-16 15:00:00 37.3 8 Norte 21 Noroeste 0 -- -- 25
2020-07-16 14:00:00 36.2 6 Norte 16 Noroeste 0 -- -- 27
2020-07-16 13:00:00 34.1 6 Noroeste 17 Noroeste 0 -- -- 29
2020-07-16 12:00:00 32.8 9 Norte 18 Noroeste 0 -- -- 31
2020-07-16 11:00:00 31.6 7 Norte 12 Nordeste 0 -- -- 34
2020-07-16 10:00:00 27.2 4 Norte 8 Norte 0 -- -- 44
2020-07-16 09:00:00 24.3 3 Noroeste 5 Noroeste 0 -- -- 50
2020-07-16 08:00:00 20.9 2 Oeste 6 Sudoeste 0 -- -- 59
2020-07-16 07:00:00 20.6 3 Sudeste 8 Sudoeste 0 -- -- 58
2020-07-16 06:00:00 21.7 3 Este 8 Este 0 -- -- 59
2020-07-16 05:00:00 23 3 Norte 8 Noroeste 0 -- -- 59
2020-07-16 04:00:00 24 2 Norte 12 Este 0 -- -- 52
2020-07-16 03:00:00 25.5 5 Nordeste 17 Sudeste 0 -- -- 41
2020-07-16 02:00:00 26.8 12 Sudeste 28 Sudeste 0 -- -- 38
2020-07-16 01:00:00 26.9 4 Norte 31 Sudeste 0 -- -- 40
2020-07-16 00:00:00 27.3 18 Sudeste 29 Sudeste 0 -- -- 41
2020-07-15 23:00:00 27.7 20 Sudeste 32 Sudeste 0 -- -- 44
2020-07-15 22:00:00 29.6 19 Sudeste 28 Sudeste 0 -- -- 40
2020-07-15 21:00:00 33.3 13 Sur 22 Sur 0 -- -- 35
2020-07-15 20:00:00 35.8 12 Sudoeste 26 Sur 0 -- -- 31
2020-07-15 19:00:00 36.9 15 Sudoeste 30 Sur 0 -- -- 30
2020-07-15 18:00:00 38.4 12 Sudeste 24 Sur 0 -- -- 27
2020-07-15 17:00:00 37.8 12 Sur 25 Sudeste 0 -- -- 27
2020-07-15 16:00:00 38.1 6 Este 18 Sur 0 -- -- 26
2020-07-15 15:00:00 36.7 6 Norte 19 Sur 0 -- -- 28
2020-07-15 14:00:00 36.4 6 Este 19 Nordeste 0 -- -- 28
2020-07-15 13:00:00 34.7 8 Nordeste 22 Norte 0 -- -- 31
2020-07-15 12:00:00 31.6 10 Noroeste 21 Noroeste 0 -- -- 40
2020-07-15 11:00:00 29.7 3 Sudoeste 11 Sudeste 0 -- -- 40
2020-07-15 10:00:00 26.6 2 Nordeste 6 Norte 0 -- -- 52
2020-07-15 09:00:00 24.1 5 Nordeste 10 Nordeste 0 -- -- 65
2020-07-15 08:00:00 22.4 5 Nordeste 13 Nordeste 0 -- -- 72
2020-07-15 07:00:00 22 4 Este 10 Este 0 -- -- 74
2020-07-15 06:00:00 22 4 Este 8 Nordeste 0 -- -- 75
2020-07-15 05:00:00 22.4 4 Este 10 Este 0 -- -- 73
2020-07-15 04:00:00 22.9 4 Este 12 Sudeste 0 -- -- 67
2020-07-15 03:00:00 24.3 4 Sudeste 12 Sudeste 0 -- -- 53
2020-07-15 02:00:00 25 3 Noroeste 14 Sudeste 0 -- -- 54
2020-07-15 01:00:00 25.4 4 Sudoeste 22 Sudeste 0 -- -- 54
2020-07-15 00:00:00 24.9 4 Sudoeste 8 Sudoeste 0 -- -- 64
2020-07-14 23:00:00 25.6 4 Oeste 14 Oeste 0 -- -- 64
2020-07-14 22:00:00 28.4 5 Oeste 21 Sudoeste 0 -- -- 55
2020-07-14 21:00:00 32.4 11 Sudoeste 27 Sudoeste 0 -- -- 36
2020-07-14 20:00:00 35 13 Sudoeste 29 Oeste 0 -- -- 34
2020-07-14 19:00:00 35.7 13 Oeste 31 Oeste 0 -- -- 34
2020-07-14 18:00:00 36.4 17 Oeste 33 Noroeste 0 -- -- 32
2020-07-14 17:00:00 36.8 18 Noroeste 31 Noroeste 0 -- -- 31
2020-07-14 16:00:00 36.4 15 Noroeste 28 Noroeste 0 -- -- 35
2020-07-14 15:00:00 35.2 12 Noroeste 23 Noroeste 0 -- -- 38
2020-07-14 14:00:00 35.3 5 Este 19 Noroeste 0 -- -- 36
2020-07-14 13:00:00 33.3 7 Noroeste 13 Norte 0 -- -- 40
2020-07-14 12:00:00 31.4 4 Sur 11 Norte 0 -- -- 42
2020-07-14 11:00:00 29.3 4 Este 14 Nordeste 0 -- -- 49
2020-07-14 10:00:00 26.8 7 Nordeste 17 Nordeste 0 -- -- 57
2020-07-14 09:00:00 24.1 6 Nordeste 13 Nordeste 0 -- -- 69
2020-07-14 08:00:00 21.7 3 Este 9 Este 0 -- -- 75
2020-07-14 07:00:00 21.9 4 Este 8 Este 0 -- -- 73
2020-07-14 06:00:00 22.4 4 Nordeste 12 Nordeste 0 -- -- 71
2020-07-14 05:00:00 22.7 3 Este 13 Este 0 -- -- 68
2020-07-14 04:00:00 23.5 2 Noroeste 9 Sudoeste 0 -- -- 63
2020-07-14 03:00:00 25.2 6 Sur 17 Sudeste 0 -- -- 51
2020-07-14 02:00:00 24.6 12 Sudeste 19 Sudeste 0 -- -- 59
2020-07-14 01:00:00 24.6 5 Sur 12 Oeste 0 -- -- 65
2020-07-14 00:00:00 25.3 5 Sudoeste 14 Sudoeste 0 -- -- 64
2020-07-13 23:00:00 26.3 5 Sudoeste 17 Sudoeste 0 -- -- 61
2020-07-13 22:00:00 28.2 4 Oeste 18 Oeste 0 -- -- 58
2020-07-13 21:00:00 32.5 8 Sudoeste 22 Noroeste 0 -- -- 43
2020-07-13 20:00:00 33.9 11 Oeste 27 Noroeste 0 -- -- 41
2020-07-13 19:00:00 35.7 15 Noroeste 28 Noroeste 0 -- -- 37
2020-07-13 18:00:00 37.5 5 Oeste 17 Oeste 0 -- -- 23
2020-07-13 17:00:00 36.4 5 Norte 18 Noroeste 0 -- -- 32
2020-07-13 16:00:00 34.6 6 Noroeste 22 Noroeste 0 -- -- 37
2020-07-13 15:00:00 33.5 10 Norte 22 Norte 0 -- -- 42
2020-07-13 14:00:00 32.5 9 Norte 19 Noroeste 0 -- -- 48
2020-07-13 13:00:00 31.3 8 Norte 15 Norte 0 -- -- 52
2020-07-13 12:00:00 28.9 5 Noroeste 15 Norte 0 -- -- 59
2020-07-13 11:00:00 27.7 6 Norte 14 Norte 0 -- -- 64
2020-07-13 10:00:00 25.3 6 Norte 13 Nordeste 0 -- -- 72
2020-07-13 09:00:00 23.5 5 Norte 13 Norte 0 -- -- 80
2020-07-13 08:00:00 21.7 4 Nordeste 9 Este 0 -- -- 86
2020-07-13 07:00:00 21.8 4 Nordeste 9 Nordeste 0 -- -- 85
2020-07-13 06:00:00 22.3 5 Nordeste 9 Nordeste 0 -- -- 81
2020-07-13 05:00:00 24 2 Sudeste 22 Sudeste 0 -- -- 68
2020-07-13 04:00:00 24.1 12 Sudeste 20 Sudeste 0 -- -- 71
2020-07-13 03:00:00 23.3 12 Sur 19 Sudoeste 0 -- -- 79
2020-07-13 02:00:00 23.9 9 Sur 17 Sudoeste 0 -- -- 77
2020-07-13 01:00:00 24.3 6 Sudoeste 15 Sur 0 -- -- 73
2020-07-13 00:00:00 24.8 8 Sudoeste 17 Sur 0 -- -- 71